createdAt,value
2022-10-30T00:00:52.505Z,8.93
2022-10-30T00:04:53.539Z,9.83
2022-10-30T00:08:54.476Z,8.83
2022-10-30T00:12:55.456Z,9.13
2022-10-30T00:16:56.407Z,9.17
2022-10-30T00:20:57.654Z,9.83
2022-10-30T00:29:07.539Z,10.43
2022-10-30T00:33:08.647Z,9.47
2022-10-30T00:37:09.614Z,8.77
2022-10-30T00:41:16.092Z,9.93
2022-10-30T00:45:17.501Z,9.43
2022-10-30T00:49:19.328Z,10.40
2022-10-30T00:53:22.006Z,9.57
2022-10-30T00:57:23.740Z,9.23
2022-10-30T01:01:27.722Z,10.10
2022-10-30T01:05:31.869Z,10.53
2022-10-30T01:09:33.455Z,11.30
2022-10-30T01:13:36.465Z,10.70
2022-10-30T01:17:47.065Z,10.10
2022-10-30T01:22:00.834Z,10.27
2022-10-30T01:26:21.040Z,9.90
2022-10-30T01:30:37.600Z,8.20
2022-10-30T01:34:59.338Z,9.77
2022-10-30T01:39:04.145Z,8.57
2022-10-30T01:43:05.214Z,8.67
2022-10-30T01:47:19.243Z,8.87
2022-10-30T01:51:56.633Z,8.83
2022-10-30T01:56:07.539Z,9.13
2022-10-30T02:00:12.013Z,8.73
2022-10-30T02:04:13.699Z,8.97
2022-10-30T02:08:14.971Z,10.10
2022-10-30T02:12:16.357Z,9.13
2022-10-30T02:16:17.611Z,8.07
2022-10-30T02:20:22.132Z,10.83
2022-10-30T02:24:23.212Z,10.60
2022-10-30T02:28:24.283Z,11.07
2022-10-30T02:32:25.427Z,10.97
2022-10-30T02:36:26.500Z,11.20
2022-10-30T02:40:27.559Z,10.93
2022-10-30T02:44:28.611Z,12.10
2022-10-30T02:48:29.881Z,10.00
2022-10-30T02:52:31.474Z,10.60
2022-10-30T02:56:32.443Z,11.43
2022-10-30T03:00:33.516Z,11.43
2022-10-30T03:04:34.482Z,11.93
2022-10-30T03:08:36.472Z,10.57
2022-10-30T03:12:37.450Z,12.03
2022-10-30T03:16:38.409Z,11.00
2022-10-30T03:20:39.370Z,12.50
2022-10-30T03:24:40.440Z,11.03
2022-10-30T03:28:41.648Z,12.10
2022-10-30T03:32:42.621Z,12.50
2022-10-30T03:36:43.834Z,12.13
2022-10-30T03:40:44.782Z,11.20
2022-10-30T03:44:45.644Z,11.20
2022-10-30T03:48:49.505Z,12.00
2022-10-30T03:52:56.177Z,11.47
2022-10-30T03:56:57.371Z,10.90
2022-10-30T04:01:03.455Z,10.10
2022-10-30T04:05:05.059Z,13.07
2022-10-30T04:09:05.939Z,11.77
2022-10-30T04:13:07.510Z,12.40
2022-10-30T04:17:11.583Z,12.13
2022-10-30T04:21:11.481Z,11.80
2022-10-30T04:25:13.252Z,10.90
2022-10-30T04:29:14.273Z,11.57
2022-10-30T04:33:15.439Z,11.50
2022-10-30T04:37:16.501Z,10.87
2022-10-30T04:41:17.456Z,10.60
2022-10-30T04:45:19.312Z,12.30
2022-10-30T04:49:20.184Z,12.50
2022-10-30T04:53:21.269Z,12.20
2022-10-30T04:57:22.394Z,12.90
2022-10-30T05:01:23.545Z,13.30
2022-10-30T05:05:24.607Z,13.33
2022-10-30T05:09:25.474Z,12.30
2022-10-30T05:13:26.417Z,11.00
2022-10-30T05:17:27.440Z,12.77
2022-10-30T05:21:28.428Z,12.13
2022-10-30T05:25:29.385Z,11.07
2022-10-30T05:29:30.319Z,11.37
2022-10-30T05:33:31.406Z,12.07
2022-10-30T05:37:32.432Z,13.13
2022-10-30T05:41:33.917Z,12.07
2022-10-30T05:45:34.882Z,12.20
2022-10-30T05:49:35.825Z,13.03
2022-10-30T05:53:36.908Z,12.87
2022-10-30T05:57:37.947Z,13.53
2022-10-30T06:01:39.104Z,12.73
2022-10-30T06:05:42.331Z,13.43
2022-10-30T06:09:43.413Z,13.33
2022-10-30T06:13:44.348Z,11.70
2022-10-30T06:17:45.452Z,15.00
2022-10-30T06:21:46.913Z,14.03
2022-10-30T06:25:47.976Z,12.60
2022-10-30T06:29:48.942Z,15.00
2022-10-30T06:33:49.994Z,14.60
2022-10-30T06:37:53.656Z,13.73
2022-10-30T06:41:54.617Z,14.07
2022-10-30T06:45:57.540Z,14.70
2022-10-30T06:49:58.541Z,14.27
2022-10-30T06:53:59.655Z,15.00
2022-10-30T06:58:01.246Z,14.70
2022-10-30T07:02:04.410Z,15.37
2022-10-30T07:06:05.677Z,14.47
2022-10-30T07:10:07.094Z,14.73
2022-10-30T07:14:08.229Z,16.33
2022-10-30T07:18:10.229Z,15.50
2022-10-30T07:22:11.408Z,13.93
2022-10-30T07:26:12.644Z,13.47
2022-10-30T07:30:15.733Z,13.67
2022-10-30T07:34:16.985Z,12.60
2022-10-30T07:38:18.140Z,12.43
2022-10-30T07:42:19.134Z,16.50
2022-10-30T07:46:20.275Z,15.80
2022-10-30T07:50:21.803Z,14.43
2022-10-30T07:54:22.750Z,12.37
2022-10-30T07:58:23.853Z,12.40
2022-10-30T08:02:24.967Z,10.73
2022-10-30T08:06:27.320Z,10.57
2022-10-30T08:10:28.537Z,11.50
2022-10-30T08:14:29.599Z,10.97
2022-10-30T08:18:30.717Z,10.80
2022-10-30T08:22:31.837Z,12.27
2022-10-30T08:26:33.248Z,12.67
2022-10-30T08:30:35.727Z,13.00
2022-10-30T08:34:36.809Z,15.23
2022-10-30T08:38:37.894Z,13.40
2022-10-30T08:42:38.953Z,13.77
2022-10-30T08:46:40.075Z,16.17
2022-10-30T08:50:41.384Z,14.97
2022-10-30T08:54:42.479Z,13.40
2022-10-30T08:58:43.829Z,12.47
2022-10-30T09:02:44.928Z,13.27
2022-10-30T09:06:45.880Z,13.37
2022-10-30T09:10:46.903Z,11.57
2022-10-30T09:14:47.845Z,10.03
2022-10-30T09:18:48.879Z,10.47
2022-10-30T09:22:50.474Z,10.73
2022-10-30T09:26:51.424Z,10.90
2022-10-30T09:30:54.349Z,13.10
2022-10-30T09:34:55.522Z,12.00
2022-10-30T09:38:56.835Z,11.27
2022-10-30T09:43:18.425Z,12.20
2022-10-30T09:47:40.471Z,11.00
2022-10-30T09:52:14.424Z,12.27
2022-10-30T09:56:19.413Z,11.23
2022-10-30T10:00:23.779Z,11.27
2022-10-30T10:04:43.759Z,11.87
2022-10-30T10:08:52.537Z,12.27
2022-10-30T10:13:00.180Z,10.70
2022-10-30T10:17:02.179Z,9.90
2022-10-30T10:21:07.047Z,9.03
2022-10-30T10:25:16.356Z,9.80
2022-10-30T10:29:39.803Z,10.33
2022-10-30T10:33:59.577Z,9.17
2022-10-30T10:38:35.101Z,8.80
2022-10-30T10:42:39.988Z,8.43
2022-10-30T10:46:44.748Z,8.30
2022-10-30T10:51:07.552Z,9.87
2022-10-30T10:55:15.466Z,8.93
2022-10-30T10:59:20.286Z,8.00
2022-10-30T11:03:25.357Z,8.43
2022-10-30T11:07:32.804Z,8.83
2022-10-30T11:11:34.052Z,9.50
2022-10-30T11:15:47.451Z,9.30
2022-10-30T11:19:52.379Z,9.07
2022-10-30T11:23:53.352Z,7.37
2022-10-30T11:27:56.825Z,7.57
2022-10-30T11:32:03.865Z,6.73
2022-10-30T11:36:14.702Z,7.73
2022-10-30T11:40:16.472Z,8.17
2022-10-30T11:44:17.616Z,6.40
2022-10-30T11:48:30.309Z,8.20
2022-10-30T11:52:38.177Z,7.43
2022-10-30T11:56:42.981Z,6.77
2022-10-30T12:00:44.690Z,6.40
2022-10-30T12:04:45.738Z,8.07
2022-10-30T12:09:05.689Z,10.27
2022-10-30T12:13:12.247Z,6.30
2022-10-30T12:17:15.454Z,6.60
2022-10-30T12:21:18.925Z,7.20
2022-10-30T12:25:29.715Z,7.03
2022-10-30T12:30:08.334Z,6.67
2022-10-30T12:34:12.671Z,6.83
2022-10-30T12:38:40.461Z,7.03
2022-10-30T12:43:12.042Z,6.07
2022-10-30T12:47:16.832Z,6.63
2022-10-30T12:51:24.609Z,6.23
2022-10-30T12:55:38.445Z,8.70
2022-10-30T13:00:14.344Z,7.20
2022-10-30T13:04:19.191Z,7.00
2022-10-30T13:08:32.331Z,7.97
2022-10-30T13:12:37.281Z,5.63
2022-10-30T13:16:38.338Z,6.33
2022-10-30T13:20:40.325Z,6.17
2022-10-30T13:25:04.317Z,7.90
2022-10-30T13:29:35.687Z,6.17
2022-10-30T13:33:43.373Z,6.27
2022-10-30T13:38:23.916Z,7.00
2022-10-30T13:42:35.011Z,6.80
2022-10-30T13:46:51.388Z,6.07
2022-10-30T13:51:16.038Z,5.80
2022-10-30T13:55:33.048Z,6.50
2022-10-30T13:59:52.841Z,7.07
2022-10-30T14:04:18.666Z,7.60
2022-10-30T14:08:41.475Z,6.43
2022-10-30T14:12:58.880Z,5.73
2022-10-30T14:17:17.168Z,5.60
2022-10-30T14:21:36.497Z,5.80
2022-10-30T14:25:37.898Z,5.23
2022-10-30T14:29:45.449Z,5.90
2022-10-30T14:33:50.018Z,6.70
2022-10-30T14:37:55.283Z,6.03
2022-10-30T14:42:15.350Z,5.90
2022-10-30T14:46:38.509Z,6.50
2022-10-30T14:50:58.684Z,5.40
2022-10-30T14:55:27.800Z,5.40
2022-10-30T14:59:33.731Z,4.43
2022-10-30T15:04:09.288Z,4.87
2022-10-30T15:08:17.040Z,4.40
2022-10-30T15:12:34.206Z,5.57
2022-10-30T15:16:38.302Z,5.73
2022-10-30T15:20:40.056Z,5.33
2022-10-30T15:24:41.547Z,4.70
2022-10-30T15:28:43.403Z,5.37
2022-10-30T15:32:44.588Z,6.60
2022-10-30T15:36:45.856Z,6.37
2022-10-30T15:40:47.373Z,5.83
2022-10-30T15:44:48.824Z,6.50
2022-10-30T15:48:51.077Z,6.70
2022-10-30T15:52:53.538Z,5.57
2022-10-30T15:57:31.226Z,5.33
2022-10-30T16:01:01.810Z,6.50
2022-10-30T16:05:06.735Z,5.83
2022-10-30T16:09:11.568Z,6.43
2022-10-30T16:13:17.369Z,6.43
2022-10-30T16:17:18.844Z,6.70
2022-10-30T16:21:22.579Z,5.73
2022-10-30T16:25:24.344Z,5.67
2022-10-30T16:29:26.692Z,6.20
2022-10-30T16:33:30.211Z,6.07
2022-10-30T16:37:37.172Z,7.53
2022-10-30T16:41:39.372Z,7.63
2022-10-30T16:45:48.013Z,7.00
2022-10-30T16:49:52.788Z,5.93
2022-10-30T16:53:54.163Z,5.83
2022-10-30T16:57:58.017Z,7.40
2022-10-30T17:02:03.509Z,7.13
2022-10-30T17:06:08.493Z,6.27
2022-10-30T17:10:36.220Z,8.90
2022-10-30T17:14:52.573Z,5.93
2022-10-30T17:18:57.188Z,6.17
2022-10-30T17:23:17.333Z,6.07
2022-10-30T17:27:34.555Z,6.10
2022-10-30T17:31:39.609Z,5.77
2022-10-30T17:35:41.355Z,7.63
2022-10-30T17:39:42.979Z,8.47
2022-10-30T17:43:50.499Z,8.33
2022-10-30T17:47:51.679Z,7.63
2022-10-30T17:51:52.944Z,8.43
2022-10-30T17:56:06.505Z,7.70
2022-10-30T18:00:08.756Z,8.33
2022-10-30T18:04:20.962Z,7.20
2022-10-30T18:08:18.743Z,6.40
2022-10-30T18:12:19.917Z,8.43
2022-10-30T18:16:26.232Z,8.97
2022-10-30T18:20:28.209Z,8.93
2022-10-30T18:24:29.526Z,8.70
2022-10-30T18:28:30.938Z,8.53
2022-10-30T18:32:32.033Z,8.33
2022-10-30T18:36:33.223Z,9.60
2022-10-30T18:40:35.680Z,9.53
2022-10-30T18:44:36.762Z,8.50
2022-10-30T18:48:38.243Z,7.03
2022-10-30T18:52:39.603Z,7.27
2022-10-30T18:56:40.748Z,8.20
2022-10-30T19:01:09.932Z,7.67
2022-10-30T19:04:44.688Z,8.80
2022-10-30T19:08:46.168Z,7.63
2022-10-30T19:13:10.918Z,11.10
2022-10-30T19:16:50.462Z,11.90
2022-10-30T19:21:04.071Z,12.67
2022-10-30T19:24:55.730Z,12.97
2022-10-30T19:28:57.674Z,15.30
2022-10-30T19:32:59.248Z,15.47
2022-10-30T19:37:00.713Z,16.07
2022-10-30T19:41:02.180Z,14.23
2022-10-30T19:45:04.510Z,13.23
2022-10-30T19:49:16.992Z,10.33
2022-10-30T19:53:20.667Z,12.13
2022-10-30T19:57:22.593Z,8.60
2022-10-30T20:01:24.486Z,12.33
2022-10-30T20:05:28.974Z,10.77
2022-10-30T20:09:31.509Z,13.00
2022-10-30T20:13:34.000Z,10.40
2022-10-30T20:17:36.778Z,12.00
2022-10-30T20:21:37.974Z,13.10
2022-10-30T20:25:41.351Z,13.27
2022-10-30T20:29:43.285Z,11.87
2022-10-30T20:33:44.539Z,9.73
2022-10-30T20:38:02.628Z,21.17
2022-10-30T20:42:03.964Z,19.77
2022-10-30T20:46:08.847Z,13.90
2022-10-30T20:50:10.983Z,11.87
2022-10-30T20:54:12.464Z,13.17
2022-10-30T20:58:14.288Z,12.70
2022-10-30T21:02:15.945Z,14.73
2022-10-30T21:06:17.616Z,21.23
2022-10-30T21:10:19.149Z,25.63
2022-10-30T21:14:20.534Z,17.37
2022-10-30T21:18:21.891Z,13.40
2022-10-30T21:22:22.958Z,12.00
2022-10-30T21:26:24.536Z,11.90
2022-10-30T21:30:26.126Z,11.87
2022-10-30T21:34:27.703Z,9.80
2022-10-30T21:38:29.071Z,11.20
2022-10-30T21:42:30.646Z,9.97
2022-10-30T21:46:32.254Z,10.03
2022-10-30T21:50:33.767Z,11.57
2022-10-30T21:54:35.046Z,9.83
2022-10-30T21:58:36.538Z,11.50
2022-10-30T22:02:37.949Z,10.10
2022-10-30T22:06:41.558Z,9.63
2022-10-30T22:10:42.670Z,9.50
2022-10-30T22:14:43.935Z,9.53
2022-10-30T22:18:45.164Z,9.87
2022-10-30T22:22:46.469Z,8.93
2022-10-30T22:26:47.684Z,8.93
2022-10-30T22:30:49.084Z,10.20
2022-10-30T22:34:50.246Z,10.57
2022-10-30T22:38:58.160Z,9.73
2022-10-30T22:42:59.654Z,11.77
2022-10-30T22:47:01.049Z,9.87
2022-10-30T22:51:04.784Z,9.33
2022-10-30T22:55:06.931Z,8.60
2022-10-30T22:59:11.426Z,10.40
2022-10-30T23:03:12.925Z,10.07
2022-10-30T23:07:16.084Z,10.23
2022-10-30T23:11:17.277Z,9.70
2022-10-30T23:15:18.466Z,13.03
2022-10-30T23:19:19.523Z,9.07
2022-10-30T23:23:20.668Z,8.70
2022-10-30T23:27:21.782Z,10.10
2022-10-30T23:31:38.199Z,13.00
2022-10-30T23:35:39.487Z,10.23
2022-10-30T23:39:40.611Z,9.70
2022-10-30T23:43:41.715Z,8.50
2022-10-30T23:47:43.019Z,9.00
2022-10-30T23:51:44.259Z,8.90
2022-10-30T23:55:52.715Z,8.77
2022-10-30T23:59:53.899Z,10.47
